Home Music Articles Forums Blog Chat More...      
kristyjo
(Kristine Johanek)


Member Since: Sunday, December 04 2005 @ 12:51 PM CST
Contact: send a note
Homepage: http://
Location: Marshfield, WI United States
Song Comments: 1925
Song Votes: 133
Forum Posts: 805
Weekly Points: 0.00
Total Points: 7835.95
Bio:


I've been performing, composing and teaching music for many years. I enjoy arranging traditional and classic pieces, and also enjoy composing original music. I'll write for whomever will perform my music, so I've written for children's choirs, concert band, folk groups, sax quartets, church choirs and on and on. I studied music education rather than composition in college for practical reasons, but I still enjoy the creative process of getting ideas on paper and then hearing them performed.

Check out our Frappr!
kristyjo's Songs (79)
Date Title Rating Hits Genre Last Comment Status
12.21.14 Sussex Carol 0.00 (0) 1845 (11) Classical 01.16.17 Active
10.29.12 The Black Cat 0.00 (0) 2616 (13) Children's Music 12.15.13 Active
06.23.12 Oranges & Lemons 0.00 (0) 2130 (14) Children's Music 07.15.12 Active
12.22.11 Ding Dong Merrily on High- real synth version 0.00 (0) 2721 (5) Holiday 12.26.11 Active
12.21.11 Ding Dong Merrily on High 0.00 (0) 2339 (1) Holiday 12.21.11 Active
12.17.11 The Seven Joys of Mary 10.00 (1) 1465 (6) Holiday 12.21.11 Active
12.11.11 The Cherry Tree Carol 0.00 (0) 4183 (1) Holiday 12.12.11 Active
12.08.11 The Waits' Carol 0.00 (0) 1472 (4) Holiday 12.09.11 Active
12.06.11 Carols Old and New - Good King Wenceslaus 0.00 (0) 1098 (1) Holiday 12.07.11 Active
12.05.11 Carols Old and New - God Rest You, Merry Gentlemen 0.00 (0) 1177 (7) Holiday 12.06.11 Active
12.04.11 Carols New and Old - A Virgin Unspotted 10.00 (1) 1439 (6) Holiday 12.05.11 Active
11.20.11 Come Ye Thankful People, Come 9.00 (2) 1547 (13) Holiday 12.04.11 Active
11.24.10 We Gather Together 0.00 (0) 2847 (16) Holiday 05.15.11 Active
05.16.10 Colorado Trail 10.00 (1) 2403 (10) Folk (traditional) 10.04.10 Active
05.05.10 Shandoah 10.00 (1) 2215 (19) Folk (traditional) 08.07.10 Active
01.01.10 Night Falls 10.00 (1) 2667 (15) Native American 02.12.10 Active
12.14.09 Kling Glöckchen 10.00 (1) 3116 (18) Holiday 12.31.09 Active
12.02.09 Cold December 10.00 (1) 2950 (18) Holiday 12.08.09 Active
09.18.09 What a Friend We Have in Jesus 10.00 (1) 3145 (25) Inspirational (contemporary) 12.29.09 Active
04.05.09 My Faith Looks Up to Thee 9.75 (4) 3862 (39) Inspirational (contemporary) 07.04.09 Active
02.03.09 Voices in the Ether MJRF 9.20 (5) 3683 (36) Ambient 05.05.09 Active
01.09.09 Golden 9.69 (4) 3513 (32) Native American 04.16.09 Active
12.21.08 Light a Single Candle 7.75 (3) 4000 (28) Holiday 01.16.09 Active
12.14.08 Come, Thou Long Expected Jesus 10.00 (1) 3356 (19) Holiday 01.02.10 Active
12.06.08 Let All mortal Flesh Keep Silence 10.00 (3) 4637 (15) Holiday 01.04.09 Active
11.28.08 Gabriel's Message 9.20 (5) 4296 (14) Holiday 12.05.08 Active
11.20.08 Harvest Joy 9.00 (2) 2570 (12) Native American 12.01.08 Active
11.12.08 Iron Clouds 9.21 (6) 2647 (14) Native American 12.01.08 Active
11.04.08 Gentle Breezes- Johanek Trio instrumentation 9.83 (3) 3429 (12) Classical 01.11.10 Active
10.27.08 Crimson 9.13 (4) 3245 (17) Solo Instrument 12.10.09 Active
10.19.08 We Dined by Candlelight 9.70 (5) 3059 (19) New Age 10.30.08 Active
10.11.08 Subterranean Passage 9.25 (4) 2804 (19) Ambient 10.27.08 Active
10.04.08 High Ground 9.00 (2) 2864 (14) Classical 10.17.08 Active
09.26.08 Gentle Breezes 9.17 (3) 2975 (14) Classical 11.28.08 Active
09.19.08 Cuddleston Waltz 9.63 (4) 3104 (17) Folk (contemporary) 09.24.08 Active
04.15.08 O Waly, Waly 9.13 (6) 3886 (30) Classical 08.08.08 Active
01.01.08 Spicy Hot  (---) 4419 (16) Children's Music 06.20.08 Active
12.30.07 Changa  (---) 2878 (13) Children's Music 06.02.08 Active
11.25.07 Waiting 9.46 (6) 3423 (35) Folk (contemporary) 06.18.08 Active
11.10.07 Frost 9.17 (9) 3311 (45) Folk (contemporary) 10.11.10 Active
11.03.07 Skein 8.98 (10) 4335 (49) Folk (contemporary) 05.18.08 Active
10.27.07 Perigee 9.17 (6) 4439 (38) Folk (contemporary) 11.03.07 Active
08.18.07 Johanek Family Poem 0.00 (0) 3512 (22) Children's Music 09.17.07 Active
06.18.07 Minuet in G - Dad playing  (---) 3400 (35) Classical 03.13.08 Active
06.08.07 Stand Up, Sit Down 8.00 (1) 12411 (42) Children's Music 12.01.07 Active
05.12.07 Organic Silk 8.45 (5) 3679 (34) Classical 05.14.08 Active
05.06.07 Silk Brocade 8.25 (2) 4054 (40) Ambient 01.21.11 Active
01.28.07 E Oru O 8.44 (4) 6221 (35) Ethnic-International 05.02.07 Active
01.12.07 Solar Winds 8.46 (13) 4215 (39) Ambient 09.02.10 Active
12.17.06 Lily's Jingle Bells 8.00 (2) 3334 (26) Holiday 08.22.09 Active
12.02.06 Prepare the Way of the Lord 8.31 (4) 7026 (31) Holiday 11.07.09 Active
11.25.06 Come, Thou Long Expected Jesus 8.66 (11) 4205 (15) Holiday 02.16.07 Active
11.11.06 Three Drums with Apitua  (---) 2287 (6) Other 03.25.07 Active
10.14.06 Star Waltz 7.75 (4) 2732 (15) Ambient 12.03.06 Active
09.17.06 Folk Dance (for Classical Guitar) 8.50 (11) 2834 (12) Classical 11.19.06 Active
09.16.06 Melancholy 8.58 (10) 4367 (18) Classical 05.14.08 Active
09.10.06 Carnival (for Classical Guitar) 7.61 (7) 2623 (16) Classical 05.04.08 Active
09.09.06 Romance (for classical guitar) 8.35 (5) 3502 (7) Classical 09.16.06 Active
09.09.06 Waltz for Classical Guitar 7.75 (3) 2353 (5) Classical 09.17.06 Active
07.10.06 African Drum/Flute groove 8.54 (6) 4871 (24) Ethnic-International 05.22.08 Active
07.04.06 Poor Wayfaring Stranger 8.41 (11) 8318 (32) Classical 12.22.14 Active
04.16.06 Nostalgia Waltz 8.35 (12) 3655 (29) New Age 01.19.07 Active
04.06.06 Shinin' Down on Me (Roxylee Vocals) 8.34 (8) 2944 (13) Pop (mainstream) 12.01.07 Active
04.04.06 Lily Sings 8.25 (2) 2212 (7) Experimental 05.22.06 Active
03.24.06 Shinin' Down on Me 8.25 (1) 2688 (4) Pop (mainstream) 03.28.06 Active
03.21.06 The Music of America - kids sing 7.92 (3) 2496 (11) Children's Music 11.25.06 Active
03.09.06 The Music of America 7.94 (8) 3472 (17) Children's Music 05.31.07 Active
03.07.06 1645 Waltz 7.96 (6) 3165 (12) Classical 05.18.08 Active
02.05.06 Dignity & Grace (vocal) 8.20 (5) 2796 (13) Ambient 03.03.06 Active
02.04.06 With Dignity and Grace 7.67 (3) 2573 (8) Ambient 02.05.06 Active
01.22.06 Barcarolle 8.68 (7) 3671 (20) Classical 03.07.08 Active
01.07.06 Fair Winds, Full Sails 8.21 (6) 3550 (14) Classical 01.12.06 Active
01.01.06 Tempest Rising 8.19 (8) 4666 (11) Classical 07.21.09 Active
12.30.05 Voices in the Ether 8.31 (4) 3863 (11) Cinematic Soundtrack 10.25.07 Active
12.29.05 Arpeggio Etude 8.08 (3) 3209 (6) Classical 02.20.06 Active
12.28.05 Lament 8.00 (2) 2643 (7) Cinematic Soundtrack 12.29.05 Active
12.13.05 Personent Hodie 8.00 (5) 6225 (4) Holiday 12.21.05 Active
12.11.05 Homeward Bound 8.09 (8) 5593 (10) Classical 02.06.06 Active
12.05.05 Lord, prepare Us for Your Advent 8.14 (7) 3850 (12) Holiday 12.01.07 Active
Favorite Songs (181)
Title Artist Date Genre
Invention No. 53 paul f. page 05.04.17 Baroque
Dancing In The Rain PeterB7858 03.09.17 Acoustic
Closer To Fire paddler 06.24.16 Folk (contemporary)
When A Knight Won His Spurs paddler 06.24.16 Folk (traditional)
Transmission MissChaos 09.14.15 Electronic
Golliwog's Cakewalk MidiOrleans 06.13.15 Classical
Adeste Fantasia paul f. page 12.13.14 Holiday
Clap Your Hands Skean 12.08.14 Experimental
Pastorale paul f. page 11.08.14 Cinematic Soundtrack
El Manisero VicDiesel 08.16.14 Latin
Gigue paul f. page 07.22.14 Baroque
Jade paul f. page 03.22.14 Piano
God Rest Ye Merry, Gentlemen (take 5) TobinMueller 12.19.13 Holiday
Palms and trees danielmoore 12.18.13 Acoustic
Le Piccadilly-Erik Satie MidiOrleans 12.11.13 Classical
Two Part Invention in A Minor (LSP2) SmokeyVW 12.05.13 Electronic
Less Is More paul f. page 12.05.13 Classical
Christmas Bells Philip18 11.30.13 Acoustic
Bansuri on a Brick Patio VicDiesel 10.27.13 Ethnic-International
Forever and Ever Amen (Finger-style) thetiler 10.23.13 Folk (contemporary)
Debbie's Wind Llarion 09.10.13 Smooth Jazz
Buffalo Grass VicDiesel 08.20.13 Native American
Freefall grah3am 08.20.13 Pop (Alternative)
The Winter /w lholden and symphony101 Loob 07.20.13 Pop (mainstream)
Through My Window Gaylen75 10.01.12 Alternative Rock
Blue Bone MidiOrleans 09.01.12 Jazz (instrumental)
Passage paul f. page 02.28.12 Cinematic Soundtrack
Wanderlust (by FLY) Symphony101 02.23.12 Soft Rock-Adult Contemporary
It's Christmas Time daphna 12.21.11 Pop (mainstream)
Nutcracker Mirlitons H3nry 12.17.11 Pop Classical
Silent Night Philip18 12.17.11 Acoustic
O, Holy Night (trad.) Llarion 12.02.11 Holiday
Over a moonbeam VicDiesel 10.05.11 Native American
All The Pretty Little Horses John Stebbe 09.18.11 Folk (traditional)
The Royal Twins VicDiesel 07.04.11 Renaissance
Maria Elena thetiler 04.23.11 Acoustic
Smackdown 3 w/awigze & scofugate magnatone 03.27.11 Pop Orchestral
PIF for Grand Organ paul f. page 03.26.11 Classical
Little Perfect* MissChaos 01.11.11 Electronic
Shostakovich Waltz 2 MidiOrleans 01.08.11 Classical
Shostakovich Waltz 2 MidiOrleans 01.08.11 Classical
Chestnut Song (Merry Christmas) Martin_Leroy 12.25.10 Holiday
Sussex Carol (trad.) H3nry 12.12.10 Holiday
What Kind of Person Do I Want to Be w/D. Jorden, My Students, Rich, Andy, Mike, Bryn, & Bob alackbass 11.23.10 Rhythm and Blues
Saltarello VicDiesel 10.22.10 Renaissance
iPad Riff Revisited… composerclark 10.12.10 Classical
Innsbruck, Ich Muss Dich Lassen - Heinrich Isaak LonePineMusic 10.08.10 Renaissance
Innsbruck, Ich Muss Dich Lassen - Heinrich Isaak LonePineMusic 10.08.10 Renaissance
Wake Me Gently paul f. page 08.29.10 Easy Listening
Easy Come, Easy Go w/Anne & paddler alackbass 08.29.10 Rhythm and Blues
Neverland 2010 (with Pie) The Orbiting 08.27.10 Pop (Alternative)
The Midsummer Grove (T4S with Bubowski) VicDiesel 08.21.10 Native American
Three Sixty Degrees WharmtonRise 07.05.10 Cinematic Soundtrack
Summer Serenity gail60 06.27.10 Piano
Night Doadars Uncle 05.29.10 Ambient
Saz solo VicDiesel 05.16.10 Ethnic-International
A People of Many Nations scaustrita 03.08.10 Native American
Milonga Bolacera billykirsch 02.06.10 Tango
Free Range Chicken eleveneyes 12.30.09 Blues (contemporary)
Little Fugue G minor MidiOrleans 12.27.09 Baroque
Christ Child Lullaby chestnut 12.24.09 Folk (traditional)
Boot Dragger's Waltz johnwhitehead 09.11.09 Bluegrass
A Little Alleluia kassia 06.06.09 Classical
Lamentation of Dido MidiOrleans 03.29.09 Baroque
Albinoni Concerto 4 mov.1 MidiOrleans 02.22.09 Baroque
Wintersong johnwhitehead 02.10.09 Acoustic
A Fool In Love johnwhitehead 02.05.09 Folk-Rock
Then the Rain (MJRF) guitapick 02.03.09 Fingerstyle Guitar
Indigenous Space (w/kristyjo) michael2 02.02.09 Ambient
Find Him (MJRF) Scott Carmichael 01.31.09 Rock
Retreat of the Dragons (Mark Holbrook Collab) drakonis 01.19.09 New Age
Prelude In A Minor Variatons - Capo on 3rd Fret thetiler 01.17.09 Fingerstyle Guitar
Flight of the Snowflakes (revamped) eyelikescifi 01.15.09 Trance
Sunny Side of the Street Ibstrat 01.15.09 Jazz (instrumental)
Love At War Mckenzie 01.13.09 Ballad
Vivaldi Recorder Concerto in F major RV442, 1st movement Allegro ma non tanto jonnyboy 01.10.09 Classical
A Tale Of Two Pianos (w/magnatone) kassia 01.09.09 Piano
Field Recordings Of A New Species Kicbal 01.08.09 Downtempo
Dragonfly borisluxx 01.04.09 Ambient
Disappointment stacey 01.03.09 Ballad
Of Wind KyasheMusic 12.31.08 Jazz (instrumental)
Arrangement for Cello and Theremin (w/Luna Trick) michael2 12.31.08 Experimental
Almost Baroque Ibstrat 12.27.08 Classical
Pastorale-Corelli MidiOrleans 12.19.08 Classical
God Rest Ye Merry Gentlemen/We Three Kings dreadmon 12.18.08 Holiday
Winter (Aclarke/Mcboy) Mcboy 12.13.08 Acoustic Rock
Back Porch Cat Ibstrat 12.10.08 Blues (traditional)
Intro-m matan 12.08.08 Ambient
Max's Theme kassia 12.04.08 Piano
In memory of 400 Cheyenne and Arapahoe Indians VicDiesel 11.25.08 Native American
Joy To The World dreadmon 11.24.08 Holiday
Fatal Scene musichead 11.16.08 Pop (mainstream)
iAtmospheres v.III MidiOrleans 11.15.08 Ambient
Lunch Plans poodyglitz 11.08.08 Film Scoring
Scherzo 1 gisli 11.02.08 Classical
Rialto Ripples Rag MidiOrleans 10.30.08 Ragtime
Waltz of Time michael2 10.25.08 Alternative Rock
Ich brech' die Herzen der stolzesten Frau'n dirigent 10.24.08 A Cappella
Tell Me About It (Alimar Rerelease) Eikonoklastes 10.22.08 Pop (mainstream)
Wait For Your Rain fambroski 10.21.08 Romantic
Gånglåt från Kärrtorp Cori Ander 10.20.08 Fingerstyle Guitar
Il est bel et bon dirigent 10.19.08 A Cappella
Man of Straw fambroski 10.21.08 Acoustic
Not Sharp Enough (Excelsior Medical) Andronis 10.15.08 Film Scoring
For What It's Worth? thetiler 10.13.08 Fingerstyle Guitar
October Mckenzie 10.13.08 Acoustic
Jut merkutio 10.12.08 Folk (contemporary)
Maria durch ein Dornwald ging dirigent 10.11.08 A Cappella
Crystal Land Scott Carmichael 10.11.08 Folk-Rock
Excelsior Credits (Season 1) Andronis 10.07.08 Classical
Solitude Nolan 09.29.08 Rock
Love Waltz Enrique Gil 09.26.08 Classical
East Long guitapick 09.26.08 Fingerstyle Guitar
Leo Kottke Jean-Christophe 09.13.08 Fingerstyle Guitar
Everyone Relies on Time MyFakeIdentity 08.31.08 Other
La Catedral Preludio MidiOrleans 08.31.08 Classical
Canyon Rise magnatone 08.08.08 Pop Orchestral
Between Green Sleeves guitapick 06.02.08 Acoustic
Jillian thetiler 05.26.08 Fingerstyle Guitar
Flexinit collab. remix (N.G & Ax) Axgrinder 05.09.08 Experimental
Dinner Bell guitapick 05.07.08 Fingerstyle Guitar
Sierra Madre futzpucker 04.09.08 Cinematic Soundtrack
Poor Wayfaring Stranger WeAreNotPerfekt 03.18.08 Acoustic
I Will Move On dreadmon 01.04.08 A Cappella
Hearts Alive Aaron David 12.31.07 Inspirational (contemporary)
A Break From It All Einarus 12.12.07 Cinematic Soundtrack
Sonata no. 2 in Des Major - movement one andreasvanharen 11.26.07 Classical
American Patrol Cori Ander 11.13.07 Fingerstyle Guitar
Night of the Gypsy Queen krismacqueen 11.12.07 Acoustic
Meant To Be paddler 11.06.07 Acoustic
Marcello, Op. 2, No. 6 Mvt. 3 Adagio jonnyboy 11.04.07 Classical
Marcello Op. 2, No. 6 Allegro jonnyboy 11.03.07 Classical
Boulder CO Ibstrat 10.31.07 Fingerstyle Guitar
MnM w/gregd peacepiano 09.13.07 Jazz Fusion
Myron's rag Ibstrat 09.11.07 Fingerstyle Guitar
Fragile (Echoroom/Mystified/Rebsie/MissChaos) MissChaos 08.25.07 Downtempo
Adagio in e minor for string quartet djdrshaman 08.07.07 Classical
Choro da Saudade thetiler 06.29.07 Classical
The Gentle Maiden/Planxty Fanny Powers Brian Weiland 06.12.07 Celtic
Mama Cries (Horizon Mix) MissChaos 06.07.07 Downtempo
Hearing Footsteps (dream) composerclark 06.04.07 Classical
And we danced'til dawn Enrique Gil 06.01.07 Classical
Then the Rain guitapick 05.04.07 Fingerstyle Guitar
Hill Top paddler 04.29.07 Folk (contemporary)
Seminole Solstice dreadmon 04.03.07 Native American
Rainbow Sandwich Brian Weiland 04.04.07 Children's Music
Cuckoo Song paddler 03.15.07 Folk (contemporary)
Moderato - Romance Feter 02.11.07 Acoustic
So near yet so far paddler 02.04.07 Folk (contemporary)
Pilgrims journey 1 haribo 01.20.07 Classical
Martin Simon, Chamber Concerto in c minor for 2 alto recorders, oboe, and basso continuo, 1 Adagio jonnyboy 01.06.07 Classical
Auld Lang Syne 2007 dreadmon 12.29.06 Folk (traditional)
Camellia Rag (Final Version) Andronis 12.29.06 Ragtime
Nu tändas tusen juleljus Cori Ander 12.14.06 Fingerstyle Guitar
O Holy Night MissChaos 12.10.06 Holiday
Voices of Arctic Insomnia MissChaos 12.01.06 Ambient
Ascend (Orchestral Version) Audiologic 11.28.06 Cinematic Soundtrack
ANOTHER WAYFARER Scott Carmichael 11.18.06 Folk (traditional)
Brahms Jazz Piano Trio John Stebbe 11.18.06 Jazz (instrumental)
Singer's Prayer phyllomania 11.10.06 Folk (contemporary)
Beautiful Day GuitarJanson 11.07.06 Acoustic
DidgeEmber (with Didge-Ache) drakonis 10.08.06 Ambient
Mercy Scott Carmichael 08.01.06 Rock
3 Pieces for Orchestra, #3 composerclark 05.19.06 Classical
Liravethan Processional (Rondo and Fanfare for Organ and Two Trumpets) Andronis 04.14.06 Classical
Heart Of The Desert futzpucker 03.31.06 Jazz (instrumental)
Caroline's Bear Rag - Calliope drakonis 03.28.06 Ragtime
Nolan's Unobtainable Remedy jiguma 03.24.06 Acoustic Rock
My Hope Scott Carmichael 03.19.06 Folk-Rock
Organism Magritte 02.21.06 Classical
The View from Up Here MissChaos 01.27.06 Cinematic Soundtrack
Corridor Mystified 01.23.06 Ambient
Ode to a Previous Day Cameron 01.10.06 Classical
Four Days in January Tom Atwood 01.06.06 Cinematic Soundtrack
Still Waters Jon Swerens 01.01.06 New Age
The Transition thetiler 12.27.05 Inspirational (contemporary)
Marche Militarie 2005 Cori Ander 12.16.05 Fingerstyle Guitar
Holy Child, Blessed One Noel Project 12.07.05 Holiday
Si Me Dan Pasteles Scorpjammer 12.07.05 Holiday
Northern Snow (Cori Ander) Noel Project 11.29.05 Holiday
The Prince Of Peace paulhenrys 11.12.05 Holiday
Favorite MacJammers (25)
Fans (52)
Music Background BM -Coe College, Cedar Rapids, IA MME- Silver Lake College, Manitowoc, WI
Music Skills I am trained in voice, classical guitar and piano. In addition, I play flute, recorder, tenor & bari sax, organ, folk guitar, and any Orff-style instrument you can throw at me. I also enjoy hand drumming in a group.
Music Hardware Edirol PC-50 MAudio USB/MIDI with a little mini keyboard, Snowball mic from Blue. flexmic USB for travel, UA 1X audio interface.
Music Software Finale 2006, GarageBand, QuickTime Pro 7,
Keywords